Aeroporto :
LOGIN :

Iscrizione | Disclaimer

   EN    FR    IT 

 










Sommario :    VFR   VFR Marginale   IFR   IFR Intensivo   IFR Molto Intensivo
Visibilità : 
Base nubi : 
>= 8 km
>= 3000ft
5 / 8 km
1000 / 3000 ft
1500m / 5 km
500 / 1000 ft
800 / 1500m
200 / 500 ft
< 800m
< 200 ft
Simboli :   Temporali  Nebbia  Neve Forte  Precipitazioni Forti  Vento > 20 kt
SIGMETs :   Varie  Temporali  Ghiacco  Turbolenza  Onda orograficha  Ceneri Vulcaniche






- Altitudine del aeroporto : 699 ft
- Codice IATA : PAD


EDLP - Paderborn Lippstadt

ULTIMO METAR :
  • 171720Z 35005KT 300V040 3200 RA BR OVC002 03/03 Q1007

METARs OBSOLETI :
  • 171650Z 33005KT 290V020 3100 RA BR OVC001 03/03 Q1007
  • 171620Z 32004KT 290V360 2500 RA BR SCT002 BKN014 OVC016 04/03 Q1008
  • 171550Z 29003KT 270V330 2800 -RA BR BKN015 OVC026 04/03 Q1008
  • 171520Z 28004KT 250V320 3000 BR FEW016 OVC045 04/03 Q1008
  • 171450Z 30003KT 270V340 4500 BR FEW022 SCT042 OVC062 04/03 Q1008

TAF AMD TAF EDLP
Valido dal 17 a 13 ore il 18 a 12 ore UTC


171355Z 1713/1812 02007KT 4500 BR BKN030
TEMPO 1714/1717 8000
BECMG 1715/1718 RA BKN006
BECMG 1718/1721 1200 -DZRA BKN001
TEMPO 1721/1808 32004KT 0500 DZ FG
BECMG 1806/1809 20005KT
BECMG 1809/1812 18010KT 6000 BKN012



MetMap, La meteo Aeronautica in un colpo d'occhio ! - Copyright ORBIFLY Dicembre 2007 - Disclaimer

ORBIFLY MET'MAP TEAM :

Programmazione e sviluppo : Alexandra Zaïnal
Concezione e sviluppo : Baudouin d'Aumeries
Co-Programmazione e sviluppo : Marc-Olivier Méhu
Supporto tecnico e logistico : Manuel Goepfert
Aiuto per la traduzione : Arnaldo La Scala

Contatto : metmap@orbifly.com




FONTI E CREDITI :

   NOAA